createdAt,value
2018-04-13T00:01:41.586Z,60.07
2018-04-13T00:04:09.064Z,59.79
2018-04-13T00:06:36.632Z,60.37
2018-04-13T00:09:04.140Z,62.49
2018-04-13T00:11:31.627Z,61.25
2018-04-13T00:13:59.109Z,61.16
2018-04-13T00:16:26.626Z,62.43
2018-04-13T00:18:54.135Z,62.09
2018-04-13T00:21:21.628Z,62.41
2018-04-13T00:23:49.135Z,62.27
2018-04-13T00:26:16.617Z,61.81
2018-04-13T00:28:44.096Z,64.25
2018-04-13T00:31:11.604Z,60.86
2018-04-13T00:33:39.083Z,64.83
2018-04-13T00:36:06.573Z,61.50
2018-04-13T00:38:34.109Z,62.06
2018-04-13T00:41:01.597Z,61.77
2018-04-13T00:43:29.100Z,62.93
2018-04-13T00:45:56.613Z,62.73
2018-04-13T00:48:24.117Z,62.73
2018-04-13T00:50:51.596Z,60.78
2018-04-13T00:53:28.908Z,62.22
2018-04-13T00:55:56.393Z,62.02
2018-04-13T00:58:23.881Z,62.23
2018-04-13T01:00:51.399Z,62.70
2018-04-13T01:03:18.934Z,62.20
2018-04-13T01:05:46.420Z,61.54
2018-04-13T01:08:13.935Z,61.29
2018-04-13T01:10:41.421Z,62.26
2018-04-13T01:13:08.909Z,63.22
2018-04-13T01:15:36.422Z,63.49
2018-04-13T01:18:03.909Z,63.78
2018-04-13T01:20:31.404Z,63.61
2018-04-13T01:22:59.822Z,63.61
2018-04-13T01:25:27.325Z,63.37
2018-04-13T01:27:54.813Z,62.27
2018-04-13T01:30:22.317Z,61.72
2018-04-13T01:32:49.803Z,62.14
2018-04-13T01:35:17.285Z,61.81
2018-04-13T01:37:44.797Z,62.11
2018-04-13T01:40:12.285Z,61.30
2018-04-13T01:42:39.765Z,61.16
2018-04-13T01:45:08.261Z,60.13
2018-04-13T01:47:35.745Z,60.31
2018-04-13T01:50:03.229Z,61.34
2018-04-13T01:52:30.746Z,65.03
2018-04-13T01:54:58.228Z,65.89
2018-04-13T01:57:25.711Z,65.28
2018-04-13T01:59:53.245Z,64.26
2018-04-13T02:02:20.732Z,63.50
2018-04-13T02:04:48.223Z,63.50
2018-04-13T02:07:15.733Z,64.02
2018-04-13T02:09:43.219Z,63.76
2018-04-13T02:12:10.728Z,63.58
2018-04-13T02:14:38.234Z,63.24
2018-04-13T02:17:05.736Z,63.53
2018-04-13T02:19:33.220Z,63.17
2018-04-13T02:22:00.730Z,63.14
2018-04-13T02:24:28.213Z,61.99
2018-04-13T02:26:55.705Z,62.13
2018-04-13T02:29:23.216Z,62.46
2018-04-13T02:31:50.706Z,62.61
2018-04-13T02:34:18.225Z,62.84
2018-04-13T02:36:46.726Z,62.44
2018-04-13T02:39:14.215Z,62.98
2018-04-13T02:41:41.718Z,63.85
2018-04-13T02:44:09.224Z,65.00
2018-04-13T02:46:36.718Z,65.12
2018-04-13T02:49:04.206Z,65.40
2018-04-13T02:51:31.726Z,66.32
2018-04-13T02:53:59.225Z,64.08
2018-04-13T02:56:26.708Z,63.43
2018-04-13T02:58:54.227Z,63.80
2018-04-13T03:01:21.711Z,63.31
2018-04-13T03:03:49.209Z,65.20
2018-04-13T03:06:16.716Z,64.99
2018-04-13T03:08:44.201Z,64.35
2018-04-13T03:11:11.691Z,65.00
2018-04-13T03:13:39.205Z,64.38
2018-04-13T03:16:06.699Z,64.56
2018-04-13T03:18:34.187Z,65.03
2018-04-13T03:21:01.688Z,65.00
2018-04-13T03:23:29.199Z,65.42
2018-04-13T03:25:56.690Z,65.78
2018-04-13T03:28:24.205Z,64.56
2018-04-13T03:30:51.708Z,64.49
2018-04-13T03:33:19.202Z,65.27
2018-04-13T03:35:46.721Z,64.86
2018-04-13T03:38:14.191Z,64.85
2018-04-13T03:40:41.725Z,64.93
2018-04-13T03:43:09.324Z,66.18
2018-04-13T03:45:36.823Z,66.91
2018-04-13T03:48:04.303Z,65.93
2018-04-13T03:50:31.808Z,66.38
2018-04-13T03:52:59.299Z,66.94
2018-04-13T03:55:27.130Z,67.70
2018-04-13T03:57:54.752Z,68.17
2018-04-13T04:00:22.573Z,68.72
2018-04-13T04:02:50.097Z,69.39
2018-04-13T04:05:17.609Z,69.48
2018-04-13T04:07:45.095Z,70.45
2018-04-13T04:10:12.581Z,70.98
2018-04-13T04:12:40.114Z,71.29
2018-04-13T04:15:07.605Z,71.96
2018-04-13T04:17:35.089Z,73.00
2018-04-13T04:20:14.561Z,73.34
2018-04-13T04:25:45.510Z,73.76
2018-04-13T04:28:12.993Z,74.06
2018-04-13T04:30:40.476Z,74.03
2018-04-13T04:33:07.997Z,73.76
2018-04-13T04:35:35.482Z,73.58
2018-04-13T04:38:02.968Z,73.44
2018-04-13T04:40:30.490Z,73.29
2018-04-13T04:42:57.980Z,73.01
2018-04-13T04:45:25.460Z,72.62
2018-04-13T04:47:52.980Z,72.39
2018-04-13T04:50:20.474Z,71.19
2018-04-13T04:52:47.960Z,71.13
2018-04-13T04:55:15.516Z,71.32
2018-04-13T04:57:43.010Z,70.86
2018-04-13T05:00:10.497Z,69.66
2018-04-13T05:02:38.016Z,69.82
2018-04-13T05:05:05.501Z,69.90
2018-04-13T05:07:33.001Z,68.79
2018-04-13T05:10:00.509Z,68.62
2018-04-13T05:12:27.989Z,68.40
2018-04-13T05:14:55.473Z,68.48
2018-04-13T05:17:22.986Z,68.26
2018-04-13T05:19:50.478Z,69.76
2018-04-13T05:22:17.970Z,70.77
2018-04-13T05:24:45.482Z,71.24
2018-04-13T05:27:12.964Z,71.11
2018-04-13T05:29:40.457Z,70.74
2018-04-13T05:32:08.950Z,70.85
2018-04-13T05:34:36.442Z,69.87
2018-04-13T05:37:03.925Z,69.71
2018-04-13T05:39:31.432Z,69.82
2018-04-13T05:41:58.921Z,70.09
2018-04-13T05:44:26.423Z,69.34
2018-04-13T05:46:53.938Z,68.39
2018-04-13T05:49:21.421Z,67.90
2018-04-13T05:51:48.905Z,66.39
2018-04-13T05:54:16.422Z,66.03
2018-04-13T05:56:43.908Z,66.74
2018-04-13T05:59:11.403Z,65.37
2018-04-13T06:01:38.913Z,65.05
2018-04-13T06:04:06.397Z,65.44
2018-04-13T06:06:33.914Z,64.21
2018-04-13T06:09:01.476Z,64.50
2018-04-13T06:11:28.966Z,65.15
2018-04-13T06:13:56.457Z,64.91
2018-04-13T06:16:23.964Z,64.69
2018-04-13T06:18:51.498Z,64.45
2018-04-13T06:21:18.969Z,64.71
2018-04-13T06:23:46.505Z,64.21
2018-04-13T06:26:14.011Z,64.40
2018-04-13T06:28:41.519Z,62.55
2018-04-13T06:31:09.028Z,62.70
2018-04-13T06:33:36.508Z,60.81
2018-04-13T06:36:03.998Z,62.20
2018-04-13T06:38:31.537Z,61.38
2018-04-13T06:40:59.034Z,60.99
2018-04-13T06:43:26.515Z,61.17
2018-04-13T06:45:54.029Z,64.74
2018-04-13T06:48:21.545Z,63.89
2018-04-13T06:50:49.032Z,65.24
2018-04-13T06:53:16.544Z,65.10
2018-04-13T06:55:44.093Z,65.23
2018-04-13T06:58:11.580Z,65.24
2018-04-13T07:00:39.098Z,64.86
2018-04-13T07:03:06.586Z,64.80
2018-04-13T07:05:34.104Z,64.46
2018-04-13T07:08:01.617Z,64.27
2018-04-13T07:10:29.101Z,62.45
2018-04-13T07:12:56.602Z,61.14
2018-04-13T07:15:24.114Z,61.15
2018-04-13T07:17:51.605Z,60.58
2018-04-13T07:20:19.102Z,59.21
2018-04-13T07:22:46.614Z,56.04
2018-04-13T07:25:14.102Z,54.99
2018-04-13T07:27:41.598Z,55.34
2018-04-13T07:30:09.142Z,54.65
2018-04-13T07:32:36.705Z,51.72
2018-04-13T07:35:04.240Z,48.02
2018-04-13T07:37:31.758Z,44.88
2018-04-13T07:39:59.246Z,43.03
2018-04-13T07:42:26.765Z,37.81
2018-04-13T07:44:54.292Z,34.97
2018-04-13T07:47:21.801Z,31.12
2018-04-13T07:49:49.281Z,28.63
2018-04-13T07:52:16.813Z,26.62
2018-04-13T07:54:44.297Z,25.31
2018-04-13T07:57:11.790Z,23.66
2018-04-13T07:59:39.341Z,24.53
2018-04-13T08:02:06.818Z,21.85
2018-04-13T08:04:35.205Z,22.33
2018-04-13T08:07:02.713Z,22.48
2018-04-13T08:09:30.204Z,22.32
2018-04-13T08:11:57.689Z,21.12
2018-04-13T08:14:25.200Z,20.61
2018-04-13T08:16:52.689Z,24.04
2018-04-13T08:19:20.163Z,24.27
2018-04-13T08:21:47.665Z,25.54
2018-04-13T08:24:15.150Z,25.62
2018-04-13T08:26:42.646Z,26.09
2018-04-13T08:29:10.152Z,25.93
2018-04-13T08:31:37.661Z,23.62
2018-04-13T08:34:05.146Z,20.90
2018-04-13T08:36:32.655Z,19.36
2018-04-13T08:39:00.149Z,19.38
2018-04-13T08:41:27.645Z,21.10
2018-04-13T08:43:55.163Z,22.73
2018-04-13T08:46:22.644Z,22.72
2018-04-13T08:48:50.244Z,23.81
2018-04-13T08:51:17.661Z,24.41
2018-04-13T08:53:45.157Z,24.51
2018-04-13T08:56:12.650Z,24.94
2018-04-13T08:58:40.161Z,24.61
2018-04-13T09:01:07.641Z,24.27
2018-04-13T09:03:35.135Z,22.83
2018-04-13T09:06:02.644Z,21.30
2018-04-13T09:08:30.129Z,21.23
2018-04-13T09:10:57.613Z,22.11
2018-04-13T09:13:26.939Z,21.56
2018-04-13T09:15:54.425Z,20.09
2018-04-13T09:18:21.914Z,19.72
2018-04-13T09:20:49.470Z,21.28
2018-04-13T09:23:16.946Z,21.61
2018-04-13T09:25:44.438Z,22.34
2018-04-13T09:28:11.953Z,22.28
2018-04-13T09:30:39.433Z,22.68
2018-04-13T09:33:06.925Z,24.03
2018-04-13T09:35:34.459Z,26.63
2018-04-13T09:38:01.970Z,28.29
2018-04-13T09:40:29.466Z,28.32
2018-04-13T09:42:56.976Z,30.23
2018-04-13T09:45:24.467Z,30.56
2018-04-13T09:47:51.991Z,31.06
2018-04-13T09:50:20.466Z,31.15
2018-04-13T09:52:47.948Z,31.36
2018-04-13T09:55:15.429Z,32.05
2018-04-13T09:57:42.934Z,31.70
2018-04-13T10:00:10.409Z,31.02
2018-04-13T10:02:37.892Z,28.77
2018-04-13T10:05:10.949Z,28.23
2018-04-13T10:07:38.432Z,29.54
2018-04-13T10:10:05.972Z,30.72
2018-04-13T10:12:33.478Z,31.76
2018-04-13T10:15:00.961Z,32.87
2018-04-13T10:17:28.445Z,32.88
2018-04-13T10:19:56.004Z,32.81
2018-04-13T10:22:23.492Z,33.33
2018-04-13T10:24:50.968Z,34.39
2018-04-13T10:27:18.480Z,34.96
2018-04-13T10:29:45.981Z,35.82
2018-04-13T10:32:13.489Z,36.34
2018-04-13T10:34:41.227Z,37.29
2018-04-13T10:37:08.777Z,37.03
2018-04-13T10:39:36.261Z,37.49
2018-04-13T10:42:03.864Z,37.42
2018-04-13T10:44:31.378Z,37.69
2018-04-13T10:46:58.971Z,37.67
2018-04-13T10:49:26.627Z,38.24
2018-04-13T10:51:54.188Z,38.49
2018-04-13T10:54:21.672Z,38.97
2018-04-13T10:56:49.277Z,38.76
2018-04-13T10:59:16.845Z,39.25
2018-04-13T11:01:44.347Z,39.79
2018-04-13T11:04:11.869Z,39.37
2018-04-13T11:06:39.460Z,39.24
2018-04-13T11:09:07.082Z,39.27
2018-04-13T11:11:34.594Z,38.40
2018-04-13T11:14:02.084Z,37.75
2018-04-13T11:16:29.573Z,36.53
2018-04-13T11:18:57.161Z,36.44
2018-04-13T11:21:24.728Z,32.89
2018-04-13T11:23:52.220Z,32.84
2018-04-13T11:26:19.765Z,31.93
2018-04-13T11:28:47.337Z,32.03
2018-04-13T11:31:14.889Z,32.42
2018-04-13T11:33:42.518Z,33.54
2018-04-13T11:36:10.080Z,33.82
2018-04-13T11:38:37.581Z,33.60
2018-04-13T11:41:05.134Z,33.27
2018-04-13T11:43:32.665Z,32.69
2018-04-13T11:46:00.284Z,32.23
2018-04-13T11:48:27.826Z,31.88
2018-04-13T11:50:55.479Z,31.85
2018-04-13T11:53:23.026Z,32.24
2018-04-13T11:55:50.570Z,32.72
2018-04-13T11:58:18.148Z,31.48
2018-04-13T12:00:45.629Z,30.64
2018-04-13T12:03:13.133Z,31.29
2018-04-13T12:05:40.629Z,31.54
2018-04-13T12:08:08.120Z,31.13
2018-04-13T12:10:35.642Z,30.92
2018-04-13T12:13:03.138Z,30.83
2018-04-13T12:15:30.675Z,33.02
2018-04-13T12:17:58.189Z,34.54
2018-04-13T12:20:25.701Z,35.08
2018-04-13T12:22:53.196Z,34.91
2018-04-13T12:25:20.717Z,34.35
2018-04-13T12:27:48.209Z,35.34
2018-04-13T12:30:15.732Z,34.69
2018-04-13T12:32:43.287Z,34.58
2018-04-13T12:35:10.773Z,35.73
2018-04-13T12:37:38.269Z,35.35
2018-04-13T12:40:05.824Z,35.36
2018-04-13T12:42:33.302Z,35.09
2018-04-13T12:45:00.793Z,34.86
2018-04-13T12:47:28.320Z,35.12
2018-04-13T12:49:55.969Z,35.22
2018-04-13T12:52:23.461Z,36.05
2018-04-13T12:54:51.143Z,35.82
2018-04-13T12:57:18.465Z,36.62
2018-04-13T12:59:45.988Z,36.66
2018-04-13T13:02:13.567Z,37.13
2018-04-13T13:04:41.057Z,38.18
2018-04-13T13:07:08.546Z,36.92
2018-04-13T13:09:36.084Z,38.69
2018-04-13T13:12:03.568Z,38.29
2018-04-13T13:14:31.061Z,37.42
2018-04-13T13:16:58.597Z,37.46
2018-04-13T13:19:26.210Z,37.73
2018-04-13T13:21:53.706Z,37.64
2018-04-13T13:24:21.257Z,37.70
2018-04-13T13:26:48.831Z,38.06
2018-04-13T13:29:17.248Z,38.24
2018-04-13T13:31:44.781Z,38.54
2018-04-13T13:34:12.302Z,41.56
2018-04-13T13:36:39.814Z,43.67
2018-04-13T13:39:07.443Z,48.52
2018-04-13T13:41:35.131Z,69.95
2018-04-13T13:44:02.883Z,67.30
2018-04-13T13:46:30.437Z,64.68
2018-04-13T13:48:57.926Z,62.00
2018-04-13T13:51:25.418Z,60.13
2018-04-13T13:53:52.933Z,58.64
2018-04-13T13:56:20.567Z,57.32
2018-04-13T13:58:48.061Z,56.14
2018-04-13T14:01:16.201Z,54.99
2018-04-13T14:03:43.689Z,54.01
2018-04-13T14:06:11.205Z,53.03
2018-04-13T14:08:38.717Z,51.98
2018-04-13T14:11:06.197Z,51.07
2018-04-13T14:13:33.690Z,50.12
2018-04-13T14:16:01.211Z,49.31
2018-04-13T14:18:28.714Z,48.53
2018-04-13T14:20:56.222Z,47.80
2018-04-13T14:23:23.736Z,47.05
2018-04-13T14:25:51.228Z,46.51
2018-04-13T14:28:18.709Z,45.92
2018-04-13T14:30:46.215Z,45.55
2018-04-13T14:33:13.712Z,45.18
2018-04-13T14:35:41.204Z,44.86
2018-04-13T14:38:08.717Z,44.60
2018-04-13T14:40:36.210Z,44.38
2018-04-13T14:43:03.701Z,44.10
2018-04-13T14:45:31.218Z,43.92
2018-04-13T14:47:58.709Z,43.73
2018-04-13T14:50:26.197Z,43.61
2018-04-13T14:52:53.711Z,43.48
2018-04-13T14:55:21.265Z,43.28
2018-04-13T14:57:48.743Z,43.21
2018-04-13T15:00:16.253Z,43.09
2018-04-13T15:02:43.737Z,43.01
2018-04-13T15:05:11.229Z,42.92
2018-04-13T15:07:38.792Z,42.84
2018-04-13T15:10:06.291Z,42.77
2018-04-13T15:12:33.780Z,42.71
2018-04-13T15:15:01.462Z,42.65
2018-04-13T15:17:29.034Z,42.58
2018-04-13T15:19:56.484Z,42.56
2018-04-13T15:22:23.993Z,42.47
2018-04-13T15:24:51.495Z,42.43
2018-04-13T15:27:19.007Z,42.39
2018-04-13T15:29:46.517Z,42.32
2018-04-13T15:32:14.002Z,42.30
2018-04-13T15:34:41.493Z,42.24
2018-04-13T15:37:09.071Z,42.17
2018-04-13T15:39:36.561Z,42.14
2018-04-13T15:42:04.038Z,42.07
2018-04-13T15:44:32.538Z,42.02
2018-04-13T15:47:00.025Z,41.99
2018-04-13T15:49:27.530Z,41.93
2018-04-13T15:51:55.034Z,41.90
2018-04-13T15:54:22.531Z,41.89
2018-04-13T15:56:50.027Z,41.84
2018-04-13T15:59:17.532Z,41.79
2018-04-13T16:01:45.018Z,41.75
2018-04-13T16:04:13.687Z,41.72
2018-04-13T16:06:41.220Z,41.70
2018-04-13T16:09:08.727Z,41.65
2018-04-13T16:11:36.225Z,41.61
2018-04-13T16:14:03.749Z,41.59
2018-04-13T16:16:31.235Z,41.60
2018-04-13T16:18:58.725Z,41.55
2018-04-13T16:21:26.251Z,41.60
2018-04-13T16:23:53.736Z,41.60
2018-04-13T16:26:21.226Z,41.64
2018-04-13T16:28:48.737Z,41.67
2018-04-13T16:31:16.234Z,41.69
2018-04-13T16:33:43.722Z,41.75
2018-04-13T16:36:11.263Z,41.76
2018-04-13T16:38:38.762Z,41.80
2018-04-13T16:41:06.245Z,41.85
2018-04-13T16:43:33.757Z,41.92
2018-04-13T16:46:01.233Z,41.99
2018-04-13T16:48:28.724Z,42.01
2018-04-13T16:50:56.284Z,42.04
2018-04-13T16:53:23.813Z,42.06
2018-04-13T16:55:51.297Z,42.10
2018-04-13T16:58:18.847Z,42.12
2018-04-13T17:00:46.332Z,42.15
2018-04-13T17:03:13.817Z,42.20
2018-04-13T17:05:41.330Z,42.21
2018-04-13T17:08:08.818Z,42.24
2018-04-13T17:10:36.298Z,42.29
2018-04-13T17:13:03.813Z,42.33
2018-04-13T17:15:31.288Z,42.37
2018-04-13T17:17:58.772Z,42.40
2018-04-13T17:20:26.290Z,42.41
2018-04-13T17:22:54.705Z,42.45
2018-04-13T17:25:22.194Z,42.49
2018-04-13T17:27:50.491Z,42.52
2018-04-13T17:30:17.981Z,42.56
2018-04-13T17:32:45.466Z,42.58
2018-04-13T17:35:12.978Z,42.61
2018-04-13T17:37:40.461Z,42.63
2018-04-13T17:40:07.946Z,42.65
2018-04-13T17:42:35.461Z,42.68
2018-04-13T17:45:02.949Z,42.70
2018-04-13T17:47:30.441Z,42.75
2018-04-13T17:49:57.956Z,42.80
2018-04-13T17:52:25.627Z,42.82
2018-04-13T17:54:53.103Z,42.87
2018-04-13T17:57:20.617Z,42.91
2018-04-13T17:59:48.096Z,42.94
2018-04-13T18:02:15.576Z,42.99
2018-04-13T18:04:43.080Z,43.01
2018-04-13T18:07:10.568Z,43.06
2018-04-13T18:09:38.052Z,43.08
2018-04-13T18:12:05.561Z,43.10
2018-04-13T18:14:33.036Z,43.14
2018-04-13T18:17:00.532Z,43.18
2018-04-13T18:19:28.036Z,43.17
2018-04-13T18:21:55.522Z,43.22
2018-04-13T18:24:23.017Z,43.28
2018-04-13T18:26:50.537Z,43.30
2018-04-13T18:29:18.021Z,43.31
2018-04-13T18:31:45.500Z,43.33
2018-04-13T18:34:13.073Z,43.38
2018-04-13T18:36:40.570Z,43.40
2018-04-13T18:39:09.054Z,43.42
2018-04-13T18:41:36.561Z,43.43
2018-04-13T18:44:04.107Z,43.46
2018-04-13T18:46:31.599Z,43.47
2018-04-13T18:48:59.113Z,43.48
2018-04-13T18:51:26.596Z,43.52
2018-04-13T18:53:54.072Z,43.53
2018-04-13T18:56:21.581Z,43.54
2018-04-13T18:58:49.064Z,43.60
2018-04-13T19:01:16.552Z,43.60
2018-04-13T19:03:44.066Z,43.63
2018-04-13T19:06:11.554Z,43.68
2018-04-13T19:08:39.042Z,43.69
2018-04-13T19:11:06.558Z,43.73
2018-04-13T19:13:34.057Z,43.72
2018-04-13T19:16:01.564Z,43.76
2018-04-13T19:18:29.073Z,43.75
2018-04-13T19:20:56.567Z,43.79
2018-04-13T19:23:24.056Z,43.80
2018-04-13T19:25:51.667Z,43.81
2018-04-13T19:28:19.156Z,43.84
2018-04-13T19:30:46.640Z,43.85
2018-04-13T19:33:14.148Z,43.86
2018-04-13T19:35:42.547Z,43.87
2018-04-13T19:38:10.029Z,43.89
2018-04-13T19:40:37.537Z,43.90
2018-04-13T19:43:05.100Z,43.93
2018-04-13T19:45:32.586Z,43.93
2018-04-13T19:48:00.133Z,43.94
2018-04-13T19:50:27.617Z,43.95
2018-04-13T19:52:55.106Z,43.97
2018-04-13T19:55:22.623Z,43.97
2018-04-13T19:57:50.120Z,44.01
2018-04-13T20:00:17.663Z,44.01
2018-04-13T20:02:45.177Z,44.02
2018-04-13T20:05:12.673Z,44.03
2018-04-13T20:07:40.161Z,44.03
2018-04-13T20:10:07.698Z,44.09
2018-04-13T20:12:35.182Z,44.08
2018-04-13T20:15:02.669Z,44.06
2018-04-13T20:17:30.180Z,44.09
2018-04-13T20:19:57.665Z,44.09
2018-04-13T20:22:25.144Z,44.12
2018-04-13T20:24:52.656Z,44.12
2018-04-13T20:27:20.183Z,44.11
2018-04-13T20:29:47.654Z,44.14
2018-04-13T20:32:15.164Z,44.15
2018-04-13T20:34:42.650Z,44.15
2018-04-13T20:37:10.143Z,44.17
2018-04-13T20:39:37.648Z,44.20
2018-04-13T20:42:05.125Z,44.23
2018-04-13T20:44:32.616Z,44.23
2018-04-13T20:47:00.209Z,44.23
2018-04-13T20:49:27.688Z,44.24
2018-04-13T20:51:55.168Z,44.25
2018-04-13T20:54:22.684Z,44.26
2018-04-13T20:56:50.173Z,44.28
2018-04-13T20:59:17.658Z,44.28
2018-04-13T21:01:45.193Z,44.29
2018-04-13T21:04:12.673Z,44.29
2018-04-13T21:06:40.158Z,44.32
2018-04-13T21:09:07.669Z,44.32
2018-04-13T21:11:35.153Z,44.31
2018-04-13T21:14:02.645Z,44.30
2018-04-13T21:16:30.166Z,44.33
2018-04-13T21:18:57.653Z,44.31
2018-04-13T21:21:25.146Z,44.35
2018-04-13T21:23:52.666Z,44.38
2018-04-13T21:26:20.161Z,44.38
2018-04-13T21:28:47.649Z,44.40
2018-04-13T21:31:15.169Z,44.41
2018-04-13T21:33:42.666Z,44.42
2018-04-13T21:36:10.157Z,44.42
2018-04-13T21:38:37.670Z,44.41
2018-04-13T21:41:05.162Z,44.43
2018-04-13T21:43:32.648Z,44.46
2018-04-13T21:46:00.191Z,44.49
2018-04-13T21:48:27.682Z,44.49
2018-04-13T21:50:55.169Z,44.49
2018-04-13T21:53:22.677Z,44.48
2018-04-13T21:55:50.175Z,44.53
2018-04-13T21:58:17.661Z,44.52
2018-04-13T22:00:45.178Z,44.54
2018-04-13T22:03:12.678Z,44.52
2018-04-13T22:05:40.178Z,44.54
2018-04-13T22:08:07.691Z,44.56
2018-04-13T22:10:35.182Z,44.58
2018-04-13T22:13:14.466Z,44.61
2018-04-13T22:15:41.966Z,44.63
2018-04-13T22:18:09.458Z,44.61
2018-04-13T22:20:37.033Z,44.63
2018-04-13T22:23:04.481Z,44.64
2018-04-13T22:25:31.959Z,44.66
2018-04-13T22:27:59.478Z,44.64
2018-04-13T22:30:26.956Z,44.67
2018-04-13T22:32:54.441Z,44.69
2018-04-13T22:35:21.948Z,44.69
2018-04-13T22:37:49.437Z,44.71
2018-04-13T22:40:16.920Z,44.70
2018-04-13T22:42:44.453Z,44.73
2018-04-13T22:45:11.948Z,44.74
2018-04-13T22:47:39.429Z,44.76
2018-04-13T22:50:06.942Z,44.76
2018-04-13T22:52:34.453Z,44.76
2018-04-13T22:55:01.942Z,44.78
2018-04-13T22:57:29.449Z,44.81
2018-04-13T22:59:56.946Z,44.82
2018-04-13T23:02:24.446Z,44.86
2018-04-13T23:04:52.018Z,44.88
2018-04-13T23:07:19.485Z,44.89
2018-04-13T23:09:46.968Z,44.91
2018-04-13T23:12:14.498Z,44.93
2018-04-13T23:14:41.991Z,44.91
2018-04-13T23:17:09.486Z,44.90
2018-04-13T23:19:37.007Z,44.92
2018-04-13T23:22:04.513Z,44.93
2018-04-13T23:24:32.254Z,44.96
2018-04-13T23:26:59.770Z,44.99
2018-04-13T23:29:27.262Z,44.99
2018-04-13T23:31:54.790Z,45.00
2018-04-13T23:34:22.296Z,45.02
2018-04-13T23:36:49.777Z,45.05
2018-04-13T23:39:17.265Z,45.06
2018-04-13T23:41:44.773Z,45.05
2018-04-13T23:44:12.256Z,45.06
2018-04-13T23:46:39.745Z,45.09
2018-04-13T23:49:07.255Z,45.08
2018-04-13T23:51:34.745Z,45.09
2018-04-13T23:54:02.284Z,45.10
2018-04-13T23:56:29.769Z,45.11
2018-04-13T23:58:57.257Z,45.11
